Time;durP1;ratioP1;P1;durP2;ratioP2;P2;SDS_P1;SDS_P2;PMS_P1;PMS_P2;Temp;Humidity;BMP_temperature;BMP_pressure;BME280_temperature;BME280_humidity;BME280_pressure;Samples;Min_cycle;Max_cycle;Signal;HPM_P1;HPM_P2
2023/07/15 00:00:52;;;;;;;;;;;;;;;27.54;39.65;96576.38;4234098;28;5700;-64
2023/07/15 00:02:54;;;;;;;;;;;;;;;27.52;39.88;96573.13;4234037;28;5707;-64
2023/07/15 00:04:58;;;;;;;;;;;;;;;27.52;39.89;96575.84;4234256;28;5766;-64
2023/07/15 00:07:01;;;;;;;;;;;;;;;27.53;39.81;96575.56;4233897;28;5590;-64
2023/07/15 00:09:04;;;;;;;;;;;;;;;27.54;40.00;96570.94;4232208;27;5898;-64
2023/07/15 00:11:13;;;;;;;;;;;;;;;27.54;39.79;96570.94;4233935;28;5808;-64
2023/07/15 00:13:17;;;;;;;;;;;;;;;27.53;39.90;96566.63;4230183;27;5650;-64
2023/07/15 00:15:21;;;;;;;;;;;;;;;27.53;39.82;96564.72;4228618;27;5719;-64
2023/07/15 00:17:24;;;;;;;;;;;;;;;27.51;39.98;96566.09;4247110;27;5691;-64
2023/07/15 00:19:28;;;;;;;;;;;;;;;27.50;40.05;96572.66;4229551;28;5605;-65
2023/07/15 00:21:32;;;;;;;;;;;;;;;27.48;40.25;96564.00;4222466;28;5672;-64
2023/07/15 00:23:35;;;;;;;;;;;;;;;27.48;40.24;96569.44;4231298;28;5605;-64
2023/07/15 00:25:39;;;;;;;;;;;;;;;27.49;40.04;96557.47;4231372;27;5610;-64
2023/07/15 00:27:42;;;;;;;;;;;;;;;27.49;40.21;96562.91;4229026;27;5620;-63
2023/07/15 00:29:45;;;;;;;;;;;;;;;27.48;40.38;96566.72;4220360;27;5727;-63
2023/07/15 00:31:48;;;;;;;;;;;;;;;27.48;40.34;96555.88;4232319;27;5634;-65
2023/07/15 00:33:51;;;;;;;;;;;;;;;27.49;40.33;96562.91;4233683;27;5709;-65
2023/07/15 00:35:54;;;;;;;;;;;;;;;27.48;40.36;96558.59;4217827;28;5632;-65
2023/07/15 00:37:59;;;;;;;;;;;;;;;27.46;40.41;96555.38;4225040;27;7156;-65
2023/07/15 00:40:03;;;;;;;;;;;;;;;27.46;40.47;96553.47;4237077;27;5702;-65
2023/07/15 00:42:11;;;;;;;;;;;;;;;27.44;40.48;96558.41;4215843;28;5604;-65
2023/07/15 00:44:15;;;;;;;;;;;;;;;27.43;40.39;96558.72;4217758;28;5623;-65
2023/07/15 00:46:44;;;;;;;;;;;;;;;27.44;40.49;96557.59;4237049;28;5891;-64
2023/07/15 00:48:54;;;;;;;;;;;;;;;27.44;40.35;96557.59;4237040;28;5605;-65
2023/07/15 00:50:56;;;;;;;;;;;;;;;27.43;40.30;96550.56;4236915;28;5696;-65
2023/07/15 00:52:59;;;;;;;;;;;;;;;27.42;40.36;96546.25;4236543;28;5593;-65
2023/07/15 00:55:03;;;;;;;;;;;;;;;27.40;40.44;96549.25;4236603;28;5605;-65
2023/07/15 00:57:07;;;;;;;;;;;;;;;27.38;40.75;96553.38;4236695;28;5675;-65
2023/07/15 00:59:12;;;;;;;;;;;;;;;27.37;40.62;96543.63;4237071;28;5622;-65
2023/07/15 01:01:16;;;;;;;;;;;;;;;27.37;40.38;96538.22;4236903;28;5811;-65
2023/07/15 01:03:20;;;;;;;;;;;;;;;27.38;40.55;96542.53;4236543;28;6366;-65
2023/07/15 01:05:23;;;;;;;;;;;;;;;27.38;40.50;96535.19;4236688;28;5601;-65
2023/07/15 01:07:26;;;;;;;;;;;;;;;27.39;40.39;96541.41;4236636;28;5691;-65
2023/07/15 01:09:28;;;;;;;;;;;;;;;27.38;40.59;96537.09;4236268;28;5692;-65
2023/07/15 01:11:31;;;;;;;;;;;;;;;27.37;40.38;96532.78;4236648;28;5613;-65
2023/07/15 01:13:34;;;;;;;;;;;;;;;27.36;40.28;96542.84;4236416;28;5805;-65
2023/07/15 01:15:37;;;;;;;;;;;;;;;27.37;40.33;96544.44;4235432;27;5670;-65
2023/07/15 01:17:40;;;;;;;;;;;;;;;27.37;40.34;96539.00;4232775;28;5695;-65
2023/07/15 01:19:44;;;;;;;;;;;;;;;27.36;40.33;96540.13;4236084;27;5702;-65
2023/07/15 01:21:50;;;;;;;;;;;;;;;27.36;40.23;96542.84;4226301;27;6330;-65
2023/07/15 01:23:54;;;;;;;;;;;;;;;27.35;40.29;96532.28;4225564;27;5739;-64
2023/07/15 01:25:58;;;;;;;;;;;;;;;27.32;40.15;96531.00;4229662;27;5597;-65
2023/07/15 01:28:01;;;;;;;;;;;;;;;27.33;39.91;96529.88;4235024;28;5883;-65
2023/07/15 01:30:05;;;;;;;;;;;;;;;27.34;40.07;96542.34;4231675;28;5696;-65
2023/07/15 01:32:08;;;;;;;;;;;;;;;27.33;39.93;96534.53;4227904;28;5680;-65
2023/07/15 01:34:12;;;;;;;;;;;;;;;27.33;39.93;96538.03;4227916;28;5794;-65
2023/07/15 01:36:15;;;;;;;;;;;;;;;27.32;39.86;96535.63;4233979;27;5803;-65
2023/07/15 01:38:18;;;;;;;;;;;;;;;27.31;40.21;96531.31;4231711;27;5590;-65
2023/07/15 01:40:23;;;;;;;;;;;;;;;27.30;39.99;96535.94;4242841;27;6290;-65
2023/07/15 01:42:26;;;;;;;;;;;;;;;27.27;39.83;96534.63;4236328;28;5813;-66
2023/07/15 01:44:29;;;;;;;;;;;;;;;27.23;39.76;96524.69;4235871;28;5750;-63
2023/07/15 01:46:34;;;;;;;;;;;;;;;27.23;39.88;96528.22;4235808;28;5706;-64
2023/07/15 01:48:36;;;;;;;;;;;;;;;27.24;39.67;96529.00;4235913;28;5072;-64
2023/07/15 01:50:39;;;;;;;;;;;;;;;27.25;39.72;96536.03;4235876;28;5601;-64
2023/07/15 01:52:42;;;;;;;;;;;;;;;27.23;39.61;96530.13;4236079;28;5513;-64
2023/07/15 01:54:45;;;;;;;;;;;;;;;27.22;39.62;96523.91;4234475;28;7181;-64
2023/07/15 01:56:49;;;;;;;;;;;;;;;27.22;39.87;96520.38;4227254;28;5624;-65
2023/07/15 01:58:52;;;;;;;;;;;;;;;27.22;39.59;96514.94;4235781;28;5884;-64
2023/07/15 02:00:55;;;;;;;;;;;;;;;27.24;39.70;96523.59;4235619;28;5765;-64
2023/07/15 02:02:58;;;;;;;;;;;;;;;27.22;39.68;96515.75;4227766;28;5624;-64
2023/07/15 02:05:01;;;;;;;;;;;;;;;27.24;39.49;96518.16;4235818;28;5579;-64
2023/07/15 02:07:04;;;;;;;;;;;;;;;27.22;39.48;96507.59;4235775;28;5759;-65
2023/07/15 02:09:08;;;;;;;;;;;;;;;27.22;39.63;96507.59;4235456;28;5586;-64
2023/07/15 02:11:11;;;;;;;;;;;;;;;27.21;39.70;96511.44;4235528;28;5616;-64
2023/07/15 02:13:16;;;;;;;;;;;;;;;27.22;39.42;96509.53;4235766;28;5737;-64
2023/07/15 02:15:19;;;;;;;;;;;;;;;27.19;39.49;96508.22;4234630;27;5800;-64
2023/07/15 02:17:22;;;;;;;;;;;;;;;27.17;39.42;96501.47;4233022;27;6272;-64
2023/07/15 02:19:26;;;;;;;;;;;;;;;27.15;39.61;96509.94;4240787;27;5598;-64
2023/07/15 02:21:31;;;;;;;;;;;;;;;27.13;39.68;96504.00;4239023;27;5817;-64
2023/07/15 02:23:34;;;;;;;;;;;;;;;27.15;39.63;96507.22;4233096;27;5827;-64
2023/07/15 02:25:37;;;;;;;;;;;;;;;27.14;39.42;96505.63;4233778;27;7719;-64
2023/07/15 02:27:40;;;;;;;;;;;;;;;27.15;39.56;96501.78;4235232;27;5707;-64
2023/07/15 02:29:44;;;;;;;;;;;;;;;27.16;39.33;96494.44;4234066;28;5702;-64
2023/07/15 02:31:47;;;;;;;;;;;;;;;27.15;39.55;96496.38;4230277;27;5704;-64
2023/07/15 02:33:50;;;;;;;;;;;;;;;27.15;39.35;96498.28;4241950;27;5699;-64
2023/07/15 02:35:53;;;;;;;;;;;;;;;27.13;39.33;96487.75;4235167;28;5614;-64
2023/07/15 02:37:56;;;;;;;;;;;;;;;27.14;39.47;96496.69;4228841;27;5748;-64
2023/07/15 02:39:58;;;;;;;;;;;;;;;27.12;39.41;96494.28;4233537;27;5695;-64
2023/07/15 02:42:02;;;;;;;;;;;;;;;27.11;39.46;96495.38;4231984;27;5708;-64
2023/07/15 02:44:05;;;;;;;;;;;;;;;27.09;39.44;96486.75;4228612;27;5624;-64
2023/07/15 02:46:09;;;;;;;;;;;;;;;27.09;39.20;96484.03;4235751;27;5583;-64
2023/07/15 02:48:13;;;;;;;;;;;;;;;27.08;39.38;96485.16;4235074;28;5629;-64
2023/07/15 02:50:17;;;;;;;;;;;;;;;27.08;39.23;96485.16;4231872;27;5789;-64
2023/07/15 02:52:20;;;;;;;;;;;;;;;27.07;39.34;96488.97;4230377;27;5655;-64
2023/07/15 02:54:23;;;;;;;;;;;;;;;27.05;39.46;96491.16;4233097;27;5886;-64
2023/07/15 02:56:26;;;;;;;;;;;;;;;27.05;39.42;96484.94;4234036;28;5600;-64
2023/07/15 02:58:29;;;;;;;;;;;;;;;27.05;39.42;96487.66;4233400;27;5768;-64
2023/07/15 03:00:31;;;;;;;;;;;;;;;27.04;39.46;96497.69;4231604;27;5762;-64
2023/07/15 03:02:36;;;;;;;;;;;;;;;27.02;39.19;96494.50;4227701;27;5715;-64
2023/07/15 03:04:39;;;;;;;;;;;;;;;27.02;39.40;96499.94;4226164;28;5699;-64
2023/07/15 03:06:41;;;;;;;;;;;;;;;27.02;39.22;96497.22;4239701;27;5687;-65
2023/07/15 03:08:45;;;;;;;;;;;;;;;27.02;39.46;96493.69;4236860;27;5661;-64
2023/07/15 03:10:49;;;;;;;;;;;;;;;27.00;39.47;96496.69;4228337;27;5767;-65
2023/07/15 03:12:52;;;;;;;;;;;;;;;26.97;39.75;96492.69;4234460;28;5616;-65
2023/07/15 03:14:55;;;;;;;;;;;;;;;26.99;39.55;96492.38;4234391;27;6401;-65
2023/07/15 03:16:58;;;;;;;;;;;;;;;26.97;39.81;96489.16;4227625;28;5810;-65
2023/07/15 03:19:03;;;;;;;;;;;;;;;26.97;39.89;96491.88;4233443;27;5656;-65
2023/07/15 03:21:06;;;;;;;;;;;;;;;26.97;40.14;96500.81;4228769;27;5616;-65
2023/07/15 03:23:09;;;;;;;;;;;;;;;26.95;40.34;96499.50;4221385;28;5729;-64
2023/07/15 03:25:12;;;;;;;;;;;;;;;26.92;40.37;96490.06;4230048;28;5703;-64
2023/07/15 03:27:17;;;;;;;;;;;;;;;26.88;40.48;96488.28;4227068;27;5612;-64
2023/07/15 03:29:22;;;;;;;;;;;;;;;26.88;40.61;96480.16;4227983;27;5684;-65
2023/07/15 03:31:25;;;;;;;;;;;;;;;26.89;40.80;96485.25;4225159;27;5628;-64
2023/07/15 03:33:28;;;;;;;;;;;;;;;26.92;40.94;96486.56;4230436;27;5600;-64
2023/07/15 03:35:32;;;;;;;;;;;;;;;26.92;41.08;96486.56;4233063;27;5680;-64
2023/07/15 03:37:36;;;;;;;;;;;;;;;26.92;41.01;96487.34;4220508;27;5757;-64
2023/07/15 03:39:39;;;;;;;;;;;;;;;26.92;41.15;96491.97;4229590;27;5774;-65
2023/07/15 03:41:42;;;;;;;;;;;;;;;26.90;41.03;96491.50;4233269;28;5700;-65
2023/07/15 03:43:44;;;;;;;;;;;;;;;26.88;41.24;96488.28;4232904;27;5704;-65
2023/07/15 03:45:47;;;;;;;;;;;;;;;26.87;41.57;96484.78;4231207;27;5593;-65
2023/07/15 03:47:50;;;;;;;;;;;;;;;26.85;41.47;96489.69;4225249;27;5906;-65
2023/07/15 03:49:52;;;;;;;;;;;;;;;26.83;41.69;96481.03;4233306;27;5615;-65
2023/07/15 03:51:58;;;;;;;;;;;;;;;26.83;41.83;96482.97;4233970;28;5705;-65
2023/07/15 03:54:01;;;;;;;;;;;;;;;26.84;41.67;96482.69;4232079;27;5593;-65
2023/07/15 03:56:04;;;;;;;;;;;;;;;26.84;41.94;96479.13;4233806;28;5593;-65
2023/07/15 03:58:07;;;;;;;;;;;;;;;26.80;41.90;96473.53;4226470;28;5690;-65
2023/07/15 04:00:16;;;;;;;;;;;;;;;26.81;42.05;96475.13;4233266;28;5699;-65
2023/07/15 04:02:19;;;;;;;;;;;;;;;26.82;41.98;96470.50;4220134;27;5769;-65
2023/07/15 04:04:23;;;;;;;;;;;;;;;26.82;42.17;96467.78;4218991;27;5873;-65
2023/07/15 04:06:25;;;;;;;;;;;;;;;26.81;41.85;96467.00;4233024;27;5782;-65
2023/07/15 04:08:30;;;;;;;;;;;;;;;26.81;41.95;96467.00;4233760;27;5691;-65
2023/07/15 04:10:33;;;;;;;;;;;;;;;26.82;42.24;96467.78;4236660;27;5621;-65
2023/07/15 04:12:55;;;;;;;;;;;;;;;26.81;42.26;96466.19;4231491;28;5713;-65
2023/07/15 04:15:04;;;;;;;;;;;;;;;26.80;42.10;96459.97;4234299;28;5690;-65
2023/07/15 04:17:07;;;;;;;;;;;;;;;26.79;42.13;96460.28;4219248;28;5731;-65
2023/07/15 04:19:10;;;;;;;;;;;;;;;26.79;42.15;96455.66;4235818;27;5695;-65
2023/07/15 04:21:13;;;;;;;;;;;;;;;26.77;42.31;96457.06;4233743;27;5574;-65
2023/07/15 04:23:16;;;;;;;;;;;;;;;26.75;42.21;96453.88;4228529;27;5505;-65
2023/07/15 04:25:20;;;;;;;;;;;;;;;26.73;42.40;96450.63;4235136;27;5612;-65
2023/07/15 04:27:23;;;;;;;;;;;;;;;26.73;42.18;96458.78;4232849;27;5700;-65
2023/07/15 04:29:26;;;;;;;;;;;;;;;26.71;42.38;96456.38;4233211;27;5770;-65
2023/07/15 04:31:29;;;;;;;;;;;;;;;26.67;42.25;96448.03;4226353;27;5596;-65
2023/07/15 04:33:32;;;;;;;;;;;;;;;26.67;42.20;96445.34;4233559;27;6432;-65
2023/07/15 04:35:35;;;;;;;;;;;;;;;26.69;42.27;96448.53;4235633;27;5585;-65
2023/07/15 04:37:38;;;;;;;;;;;;;;;26.66;42.21;96454.56;4248510;27;5581;-65
2023/07/15 04:39:41;;;;;;;;;;;;;;;26.65;42.35;96463.81;4224845;27;5695;-65
2023/07/15 04:41:46;;;;;;;;;;;;;;;26.67;42.62;96458.09;4234492;27;5798;-65
2023/07/15 04:43:48;;;;;;;;;;;;;;;26.68;42.54;96455.06;4242069;27;5591;-65
2023/07/15 04:45:51;;;;;;;;;;;;;;;26.68;42.52;96449.66;4236651;27;5833;-65
2023/07/15 04:47:53;;;;;;;;;;;;;;;26.68;42.60;96446.13;4230523;27;5639;-64
2023/07/15 04:49:56;;;;;;;;;;;;;;;26.66;42.41;96434.81;4220388;27;5621;-65
2023/07/15 04:51:59;;;;;;;;;;;;;;;26.63;42.34;96433.50;4232331;27;5702;-65
2023/07/15 04:54:02;;;;;;;;;;;;;;;26.62;42.72;96431.91;4236009;28;5824;-65
2023/07/15 04:56:05;;;;;;;;;;;;;;;26.63;42.57;96438.94;4235770;28;5823;-65
2023/07/15 04:58:11;;;;;;;;;;;;;;;26.66;42.55;96438.31;4235284;27;5820;-65
2023/07/15 05:00:16;;;;;;;;;;;;;;;26.67;42.24;96450.75;4232577;27;5704;-65
2023/07/15 05:02:18;;;;;;;;;;;;;;;26.68;42.47;96441.50;4231523;28;5748;-65
2023/07/15 05:04:20;;;;;;;;;;;;;;;26.69;42.41;96442.31;4234190;28;5589;-65
2023/07/15 05:06:23;;;;;;;;;;;;;;;26.70;42.59;96442.00;4235247;27;5683;-65
2023/07/15 05:08:27;;;;;;;;;;;;;;;26.73;42.33;96442.50;4234035;27;5882;-65
2023/07/15 05:10:30;;;;;;;;;;;;;;;26.75;42.38;96443.03;4234508;27;5604;-65
2023/07/15 05:12:33;;;;;;;;;;;;;;;26.76;42.48;96442.72;4236230;27;5668;-64
2023/07/15 05:14:38;;;;;;;;;;;;;;;26.78;42.57;96436.97;4223862;27;5691;-65
2023/07/15 05:16:44;;;;;;;;;;;;;;;26.78;42.28;96439.69;4225981;27;5698;-65
2023/07/15 05:18:47;;;;;;;;;;;;;;;26.79;42.29;96441.28;4231984;27;5823;-65
2023/07/15 05:20:52;;;;;;;;;;;;;;;26.80;42.48;96440.19;4220148;27;5597;-65
2023/07/15 05:22:55;;;;;;;;;;;;;;;26.80;42.62;96438.28;4232087;27;5978;-65
2023/07/15 05:24:58;;;;;;;;;;;;;;;26.83;42.41;96436.84;4222631;27;5607;-65
2023/07/15 05:27:02;;;;;;;;;;;;;;;26.84;42.46;96433.03;4236215;27;5826;-65
2023/07/15 05:29:07;;;;;;;;;;;;;;;26.85;42.45;96429.25;4235861;27;5735;-65
2023/07/15 05:31:14;;;;;;;;;;;;;;;26.86;42.29;96426.22;4227523;28;5624;-65
2023/07/15 05:33:17;;;;;;;;;;;;;;;26.90;42.35;96432.63;4230410;27;5703;-65
2023/07/15 05:35:20;;;;;;;;;;;;;;;26.95;42.29;96423.56;4234401;28;5683;-65
2023/07/15 05:37:23;;;;;;;;;;;;;;;27.07;42.16;96425.75;4230297;27;5782;-65
2023/07/15 05:39:26;;;;;;;;;;;;;;;27.20;42.10;96430.34;4230936;28;5754;-65
2023/07/15 05:41:28;;;;;;;;;;;;;;;27.34;41.90;96425.63;4233432;28;5706;-64
2023/07/15 05:43:31;;;;;;;;;;;;;;;27.47;41.77;96426.69;4234498;27;5754;-65
2023/07/15 05:45:34;;;;;;;;;;;;;;;27.59;41.53;96432.34;4242913;27;5740;-65
2023/07/15 05:47:37;;;;;;;;;;;;;;;27.70;41.42;96422.84;4238772;27;5687;-65
2023/07/15 05:49:40;;;;;;;;;;;;;;;27.79;41.34;96431.84;4224893;27;5631;-65
2023/07/15 05:51:43;;;;;;;;;;;;;;;27.90;41.15;96429.66;4237773;27;5915;-65
2023/07/15 05:53:46;;;;;;;;;;;;;;;27.99;41.06;96440.56;4239608;27;5843;-65
2023/07/15 05:55:49;;;;;;;;;;;;;;;28.06;41.09;96433.53;4236688;27;5673;-65
2023/07/15 05:57:50;;;;;;;;;;;;;;;28.14;40.97;96443.66;4235530;27;5593;-65
2023/07/15 05:59:54;;;;;;;;;;;;;;;28.21;40.79;96442.41;4241467;27;5709;-65
2023/07/15 06:01:57;;;;;;;;;;;;;;;28.27;40.61;96450.13;4227575;28;5691;-65
2023/07/15 06:04:01;;;;;;;;;;;;;;;28.33;40.44;96448.88;4234890;27;5705;-65
2023/07/15 06:06:04;;;;;;;;;;;;;;;28.39;40.48;96450.31;4227356;27;5604;-65
2023/07/15 06:08:07;;;;;;;;;;;;;;;28.44;40.45;96457.53;4235114;27;5859;-65
2023/07/15 06:10:10;;;;;;;;;;;;;;;28.46;40.25;96458.03;4227168;28;5744;-67
2023/07/15 06:12:14;;;;;;;;;;;;;;;28.50;40.24;96458.19;4230394;27;5605;-66
2023/07/15 06:14:17;;;;;;;;;;;;;;;28.54;40.12;96465.41;4232386;27;5696;-66
2023/07/15 06:16:19;;;;;;;;;;;;;;;28.56;40.07;96459.66;4234225;27;5680;-66
2023/07/15 06:18:23;;;;;;;;;;;;;;;28.56;40.05;96468.59;4227456;27;5597;-66
2023/07/15 06:20:27;;;;;;;;;;;;;;;28.58;40.10;96474.53;4234699;27;5512;-65
2023/07/15 06:22:30;;;;;;;;;;;;;;;28.60;40.14;96474.19;4234593;27;5712;-65
2023/07/15 06:24:33;;;;;;;;;;;;;;;28.59;39.79;96469.88;4234100;27;5604;-65
2023/07/15 06:26:37;;;;;;;;;;;;;;;28.60;39.81;96471.50;4218663;28;5620;-66
2023/07/15 06:28:40;;;;;;;;;;;;;;;28.61;39.69;96473.88;4237792;27;6218;-66
2023/07/15 06:30:44;;;;;;;;;;;;;;;28.60;39.61;96477.72;4234030;27;5719;-64
2023/07/15 06:32:47;;;;;;;;;;;;;;;28.60;39.54;96482.38;4234841;28;6288;-64
2023/07/15 06:34:50;;;;;;;;;;;;;;;28.59;39.45;96475.31;4228877;27;6775;-64
2023/07/15 06:36:54;;;;;;;;;;;;;;;28.57;39.58;96472.13;4234421;27;5609;-65
2023/07/15 06:38:58;;;;;;;;;;;;;;;28.56;39.55;96475.97;4225160;27;5648;-65
2023/07/15 06:41:00;;;;;;;;;;;;;;;28.55;39.46;96468.94;4231437;27;5692;-66
2023/07/15 06:43:02;;;;;;;;;;;;;;;28.57;39.54;96472.13;4233637;27;5076;-66
2023/07/15 06:45:06;;;;;;;;;;;;;;;28.58;39.06;96468.28;4234175;27;5703;-65
2023/07/15 06:47:09;;;;;;;;;;;;;;;28.60;39.28;96487.81;4235057;28;5602;-65
2023/07/15 06:49:12;;;;;;;;;;;;;;;28.60;39.24;96477.72;4233555;28;6665;-63
2023/07/15 06:51:15;;;;;;;;;;;;;;;28.61;39.35;96479.31;4224911;27;5980;-66
2023/07/15 06:53:20;;;;;;;;;;;;;;;28.63;39.06;96470.84;4233375;27;5700;-64
2023/07/15 06:55:24;;;;;;;;;;;;;;;28.66;39.18;96478.41;4236341;27;5582;-64
2023/07/15 06:57:28;;;;;;;;;;;;;;;28.67;39.14;96472.63;4222653;27;5593;-64
2023/07/15 06:59:31;;;;;;;;;;;;;;;28.68;39.27;96484.31;4230575;27;5819;-64
2023/07/15 07:01:34;;;;;;;;;;;;;;;28.66;39.23;96476.47;4222673;27;5766;-64
2023/07/15 07:03:36;;;;;;;;;;;;;;;28.66;39.28;96481.13;4223601;27;5997;-65
2023/07/15 07:05:38;;;;;;;;;;;;;;;28.64;39.27;96480.59;4233608;27;5672;-65
2023/07/15 07:07:41;;;;;;;;;;;;;;;28.60;39.30;96479.66;4235032;28;5770;-65
2023/07/15 07:09:45;;;;;;;;;;;;;;;28.56;39.27;96482.19;4227980;27;6563;-65
2023/07/15 07:11:48;;;;;;;;;;;;;;;28.55;39.28;96477.88;4231796;27;5605;-65
2023/07/15 07:13:51;;;;;;;;;;;;;;;28.51;39.00;96478.81;4234433;27;5589;-65
2023/07/15 07:15:57;;;;;;;;;;;;;;;28.47;39.21;96477.84;4215651;28;5687;-66
2023/07/15 07:17:59;;;;;;;;;;;;;;;28.44;39.17;96470.34;4226639;27;5602;-66
2023/07/15 07:20:03;;;;;;;;;;;;;;;28.40;39.38;96470.94;4220730;27;5743;-66
2023/07/15 07:22:07;;;;;;;;;;;;;;;28.36;39.23;96472.69;4228977;27;5601;-63
2023/07/15 07:24:10;;;;;;;;;;;;;;;28.32;39.33;96471.75;4226913;27;5707;-65
2023/07/15 07:26:15;;;;;;;;;;;;;;;28.30;39.03;96468.50;4225972;28;6456;-64
2023/07/15 07:28:24;;;;;;;;;;;;;;;28.29;39.29;96466.13;4230834;27;5877;-65
2023/07/15 07:30:27;;;;;;;;;;;;;;;28.28;39.33;96465.31;4234045;27;5723;-64
2023/07/15 07:32:30;;;;;;;;;;;;;;;28.27;39.39;96461.00;4231119;28;5761;-65
2023/07/15 07:34:34;;;;;;;;;;;;;;;28.25;39.40;96454.25;4231259;27;5775;-64
2023/07/15 07:36:36;;;;;;;;;;;;;;;28.24;39.46;96458.88;4233509;27;5683;-66
2023/07/15 07:38:39;;;;;;;;;;;;;;;28.22;39.60;96458.41;4229857;27;5703;-66
2023/07/15 07:40:47;;;;;;;;;;;;;;;28.22;39.48;96454.88;4233474;27;5676;-65
2023/07/15 07:42:51;;;;;;;;;;;;;;;28.18;39.38;96454.69;4220270;27;5831;-65
2023/07/15 07:44:54;;;;;;;;;;;;;;;28.18;39.60;96454.69;4231451;27;6428;-65
2023/07/15 07:46:57;;;;;;;;;;;;;;;28.16;39.65;96448.78;4224994;28;5696;-65
2023/07/15 07:48:59;;;;;;;;;;;;;;;28.16;39.76;96448.78;4234164;28;5586;-65
2023/07/15 07:51:02;;;;;;;;;;;;;;;28.16;39.67;96456.13;4230419;28;5597;-65
2023/07/15 07:53:05;;;;;;;;;;;;;;;28.16;39.69;96448.78;4228325;28;5594;-65
2023/07/15 07:55:08;;;;;;;;;;;;;;;28.14;39.88;96451.00;4234001;28;5703;-65
2023/07/15 07:57:14;;;;;;;;;;;;;;;28.14;40.01;96453.72;4230940;28;5585;-65
2023/07/15 07:59:18;;;;;;;;;;;;;;;28.14;39.93;96453.72;4228629;28;5633;-65
2023/07/15 08:01:20;;;;;;;;;;;;;;;28.12;40.16;96458.69;4232142;28;5597;-65
2023/07/15 08:03:23;;;;;;;;;;;;;;;28.12;40.20;96455.97;4233758;28;5509;-65
2023/07/15 08:05:26;;;;;;;;;;;;;;;28.13;40.11;96460.28;4234318;28;6480;-65
2023/07/15 08:07:29;;;;;;;;;;;;;;;28.12;40.42;96455.97;4231498;28;5692;-65
2023/07/15 08:09:32;;;;;;;;;;;;;;;28.11;40.43;96449.72;4226560;28;5740;-65
2023/07/15 08:11:35;;;;;;;;;;;;;;;28.10;40.16;96458.19;4229016;28;5602;-65
2023/07/15 08:13:37;;;;;;;;;;;;;;;28.08;40.58;96454.97;4229531;28;5601;-63
2023/07/15 08:15:42;;;;;;;;;;;;;;;28.08;40.48;96454.97;4227500;28;5823;-64
2023/07/15 08:17:44;;;;;;;;;;;;;;;28.09;40.68;96456.59;4229525;28;5664;-64
2023/07/15 08:19:48;;;;;;;;;;;;;;;28.08;40.63;96450.34;4233707;28;5677;-64
2023/07/15 08:21:50;;;;;;;;;;;;;;;28.08;40.66;96458.47;4227592;28;5509;-64
2023/07/15 08:23:52;;;;;;;;;;;;;;;28.08;40.81;96455.75;4233891;28;5683;-65
2023/07/15 08:25:55;;;;;;;;;;;;;;;28.06;40.85;96457.19;4231679;28;5621;-64
2023/07/15 08:27:57;;;;;;;;;;;;;;;28.05;40.72;96459.13;4224583;28;5698;-64
2023/07/15 08:30:00;;;;;;;;;;;;;;;28.04;40.69;96456.72;4224261;28;6462;-64
2023/07/15 08:32:05;;;;;;;;;;;;;;;28.02;40.56;96450.81;4233740;28;6541;-64
2023/07/15 08:34:07;;;;;;;;;;;;;;;28.01;40.80;96447.28;4233787;28;6227;-64
2023/07/15 08:36:11;;;;;;;;;;;;;;;28.02;40.61;96451.59;4228525;28;5612;-64
2023/07/15 08:38:13;;;;;;;;;;;;;;;28.01;40.50;96463.59;4232780;28;5735;-64
2023/07/15 08:40:19;;;;;;;;;;;;;;;28.02;40.37;96458.94;4228559;28;5906;-64
2023/07/15 08:42:23;;;;;;;;;;;;;;;28.02;40.35;96457.03;4230145;28;5713;-64
2023/07/15 08:44:26;;;;;;;;;;;;;;;28.04;40.19;96454.00;4220937;28;5683;-65
2023/07/15 08:46:30;;;;;;;;;;;;;;;28.05;40.08;96452.88;4232392;28;7685;-64
2023/07/15 08:48:35;;;;;;;;;;;;;;;28.05;39.85;96455.59;4227683;28;5701;-64
2023/07/15 08:50:38;;;;;;;;;;;;;;;28.04;39.92;96443.94;4231348;28;5807;-65
2023/07/15 08:52:43;;;;;;;;;;;;;;;28.04;39.58;96441.22;4233638;28;5597;-64
2023/07/15 08:54:50;;;;;;;;;;;;;;;28.05;39.40;96444.72;4233064;28;5603;-64
2023/07/15 08:56:53;;;;;;;;;;;;;;;28.09;39.46;96448.44;4233748;28;5622;-64
2023/07/15 08:58:58;;;;;;;;;;;;;;;28.10;39.29;96450.84;4225000;28;5597;-65
2023/07/15 09:01:00;;;;;;;;;;;;;;;28.12;39.03;96450.53;4225644;28;5520;-65
2023/07/15 09:03:05;;;;;;;;;;;;;;;28.14;39.01;96453.72;4233650;28;5683;-65
2023/07/15 09:05:10;;;;;;;;;;;;;;;28.16;38.80;96448.78;4235634;28;5634;-65
2023/07/15 09:07:13;;;;;;;;;;;;;;;28.16;38.67;96451.50;4236454;28;5672;-64
2023/07/15 09:09:16;;;;;;;;;;;;;;;28.18;38.63;96448.44;4236579;28;5698;-64
2023/07/15 09:11:20;;;;;;;;;;;;;;;28.16;38.67;96443.34;4236295;28;5713;-65
2023/07/15 09:13:24;;;;;;;;;;;;;;;28.17;38.29;96439.50;4236580;28;5489;-65
2023/07/15 09:15:27;;;;;;;;;;;;;;;28.18;38.36;96445.75;4236388;28;5802;-65
2023/07/15 09:17:30;;;;;;;;;;;;;;;28.18;38.28;96443.81;4236770;28;5841;-66
2023/07/15 09:19:34;;;;;;;;;;;;;;;28.18;38.11;96440.31;4236471;28;5830;-65
2023/07/15 09:21:39;;;;;;;;;;;;;;;28.19;37.96;96431.84;4229546;28;5597;-65
2023/07/15 09:23:44;;;;;;;;;;;;;;;28.20;38.01;96440.78;4231078;28;5620;-65
2023/07/15 09:25:50;;;;;;;;;;;;;;;28.22;37.86;96444.00;4234435;28;5683;-66
2023/07/15 09:27:54;;;;;;;;;;;;;;;28.22;37.89;96438.56;4236288;28;5601;-66
2023/07/15 09:29:57;;;;;;;;;;;;;;;28.23;37.78;96437.47;4228192;28;5592;-66
2023/07/15 09:32:00;;;;;;;;;;;;;;;28.23;37.51;96437.47;4236221;28;5695;-66
2023/07/15 09:34:04;;;;;;;;;;;;;;;28.23;37.73;96438.25;4235713;28;6318;-64
2023/07/15 09:36:08;;;;;;;;;;;;;;;28.24;37.64;96430.91;4236474;27;6408;-65
2023/07/15 09:38:12;;;;;;;;;;;;;;;28.24;37.50;96431.69;4236075;28;5687;-66
2023/07/15 09:40:15;;;;;;;;;;;;;;;28.24;37.42;96439.06;4235722;28;5613;-65
2023/07/15 09:42:17;;;;;;;;;;;;;;;28.24;37.63;96436.34;4235982;28;5723;-68
2023/07/15 09:44:33;;;;;;;;;;;;;;;28.25;37.36;96430.59;4227596;28;5510;-67
2023/07/15 09:46:37;;;;;;;;;;;;;;;28.25;37.26;96422.44;4234196;28;5589;-66
2023/07/15 09:48:41;;;;;;;;;;;;;;;28.25;37.24;96417.00;4221179;28;5615;-67
2023/07/15 09:50:45;;;;;;;;;;;;;;;28.26;37.05;96415.88;4234338;28;5700;-66
2023/07/15 09:52:48;;;;;;;;;;;;;;;28.28;37.08;96421.03;4235174;28;5613;-65
2023/07/15 09:54:53;;;;;;;;;;;;;;;28.29;37.12;96409.03;4234298;28;5609;-65
2023/07/15 09:57:00;;;;;;;;;;;;;;;28.29;36.95;96407.13;4231514;28;5694;-66
2023/07/15 09:59:10;;;;;;;;;;;;;;;28.30;37.10;96413.34;4220617;28;5623;-66
2023/07/15 10:01:18;;;;;;;;;;;;;;;28.34;36.91;96409.69;4235464;28;5609;-65
2023/07/15 10:03:24;;;;;;;;;;;;;;;28.36;36.89;96414.81;4235880;28;5807;-65
2023/07/15 10:05:26;;;;;;;;;;;;;;;28.37;36.82;96400.09;4234521;28;5616;-64
2023/07/15 10:07:29;;;;;;;;;;;;;;;28.36;36.81;96396.59;4234951;28;5758;-64
2023/07/15 10:09:32;;;;;;;;;;;;;;;28.36;36.72;96393.88;4233601;28;5691;-65
2023/07/15 10:11:37;;;;;;;;;;;;;;;28.37;36.49;96391.94;4231626;28;6924;-64
2023/07/15 10:13:41;;;;;;;;;;;;;;;28.38;36.68;96397.06;4235981;28;5812;-64
2023/07/15 10:15:45;;;;;;;;;;;;;;;28.39;36.75;96392.44;4231441;28;5836;-65
2023/07/15 10:17:48;;;;;;;;;;;;;;;28.39;36.71;96390.50;4235028;28;5593;-66
2023/07/15 10:19:53;;;;;;;;;;;;;;;28.41;36.80;96393.69;4235355;28;5593;-65
2023/07/15 10:21:58;;;;;;;;;;;;;;;28.45;36.58;96384.94;4227249;28;5597;-66
2023/07/15 10:24:09;;;;;;;;;;;;;;;28.49;36.65;96372.28;4226934;28;5613;-68
2023/07/15 10:26:20;;;;;;;;;;;;;;;28.53;36.32;96375.97;4227291;28;5723;-67
2023/07/15 10:28:25;;;;;;;;;;;;;;;28.56;36.34;96376.16;4229665;28;5731;-67
2023/07/15 10:30:27;;;;;;;;;;;;;;;28.60;36.17;96379.03;4226036;28;5836;-68
2023/07/15 10:32:30;;;;;;;;;;;;;;;28.63;36.35;96372.94;4234737;28;5601;-68
2023/07/15 10:34:36;;;;;;;;;;;;;;;28.67;36.35;96380.16;4234618;28;5605;-68
2023/07/15 10:36:42;;;;;;;;;;;;;;;28.69;36.26;96379.84;4228969;28;5733;-68
2023/07/15 10:38:44;;;;;;;;;;;;;;;28.72;36.31;96390.06;4224075;28;5889;-68
2023/07/15 10:40:50;;;;;;;;;;;;;;;28.74;36.17;96374.22;4231588;28;5687;-68
2023/07/15 10:43:07;;;;;;;;;;;;;;;28.73;36.32;96372.63;4240393;27;5677;-68
2023/07/15 10:45:12;;;;;;;;;;;;;;;28.75;36.26;96375.81;4227715;28;5767;-65
2023/07/15 10:47:16;;;;;;;;;;;;;;;28.79;36.48;96376.81;4232511;27;5667;-64
2023/07/15 10:49:21;;;;;;;;;;;;;;;28.84;36.40;96384.78;4233189;28;5684;-65
2023/07/15 10:51:25;;;;;;;;;;;;;;;28.90;36.13;96389.00;4230222;28;6993;-65
2023/07/15 10:53:29;;;;;;;;;;;;;;;28.92;36.36;96386.75;4227174;27;5768;-65